Aaron, KY

11:31 AM CST on March 06, 2015 (GMT -0600)
Grider | Change Station
CLOSE
Current Station
Personal Weather Station
Location: Burkesville, KY
Elevation: 705 ft
Nearby Weather Stations

Elev 705 ft 36.86 °N, 85.42 °W | Updated 2 minutes ago

Clear
Clear
39.6 °F
Feels Like 40 °F
N
1.1
Wind Variable Wind from NE

Today
High -- | Low -- °F
--% Chance of Precip.
Yesterday
High -- | Low -- °F
Precip. -- in
6:04 AM 5:39 PM
Full, 99% visible
Pressure 30.55 in
Visibility 10.0 miles
Clouds Clear
Windchill 40 °F
Dew Point 18 °F
Humidity 41%
Rainfall in
Snow Depth Not available.
UV 7 out of 12
Pollen .60 out of 12
Air Quality Not available.
Flu Activity Not available.
METAR KSME 061715Z AUTO 31003KT 10SM CLR M04/M11 A3055 RMK AO2

More Conditions Fewer Conditions

Pressure 30.55 in
Visibility 10.0 miles
Clouds Clear
Windchill 40 °F
Dew Point 18 °F
Humidity 41%
Rainfall in
Snow Depth Not available.
UV 7 out of 12
Pollen .60 out of 12
Air Quality Not available.
Flu Activity Not available.
METAR KSME 061715Z AUTO 31003KT 10SM CLR M04/M11 A3055 RMK AO2

More Conditions Fewer Conditions

10-Day Weather Forecast

Almanac

Astronomy

Mar. 06, 2015 Rise Set
Actual Time
Civil Twilight
Nautical Twilight
Astronomical Twilight
Moon
Length of Visible Light
Length of Day
Tomorrow will be .
, % of the Moon is Illuminated

Today's Extremes

State Highs State Lows

Community

WunderPhotos

Upload Photos

1,803,345 photos uploaded!

WunderBlogs® & News

Nearby

Air Quality

  Air Quality AQ Index Pollutant
Not available.

Snow Depth

Station Depth Elevation

Earthquake Activity

City Distance Mag. Time & Date
Minimum magnitude displayed is 2.5.

Coastal Water Temperatures

Place Temperature

Nearby Weather Stations